Time;durP1;ratioP1;P1;durP2;ratioP2;P2;SDS_P1;SDS_P2;PMS_P1;PMS_P2;Temp;Humidity;BMP_temperature;BMP_pressure;BME280_temperature;BME280_humidity;BME280_pressure;Samples;Min_cycle;Max_cycle;Signal;HPM_P1;HPM_P2
2023/03/19 00:02:13;;;;;;;;;;;9.20;47.30;;;;;;5004335;28;19924;-83
2023/03/19 00:04:39;;;;;;;;;;;9.20;47.40;;;;;;4986768;28;19921;-83
2023/03/19 00:07:05;;;;;;;;;;;9.20;47.40;;;;;;5019778;28;19928;-82
2023/03/19 00:09:31;;;;;;;;;;;9.20;47.40;;;;;;5003823;28;19913;-83
2023/03/19 00:11:56;;;;;;;;;;;9.20;47.50;;;;;;5019618;28;20371;-85
2023/03/19 00:14:22;;;;;;;;;;;9.20;47.50;;;;;;4988064;28;19916;-85
2023/03/19 00:16:48;;;;;;;;;;;9.20;47.40;;;;;;5020078;28;19927;-85
2023/03/19 00:19:14;;;;;;;;;;;9.20;47.50;;;;;;5036374;28;20387;-84
2023/03/19 00:21:40;;;;;;;;;;;9.10;47.50;;;;;;4986128;28;19912;-83
2023/03/19 00:24:06;;;;;;;;;;;9.20;47.50;;;;;;5038100;28;19935;-84
2023/03/19 00:26:33;;;;;;;;;;;9.10;47.40;;;;;;5002795;28;20016;-83
2023/03/19 00:28:59;;;;;;;;;;;9.10;47.60;;;;;;5018984;28;19933;-85
2023/03/19 00:31:26;;;;;;;;;;;9.10;47.60;;;;;;5009839;28;19928;-85
2023/03/19 00:33:52;;;;;;;;;;;9.10;47.60;;;;;;4984728;28;20955;-84
2023/03/19 00:36:18;;;;;;;;;;;9.10;47.60;;;;;;5018574;28;20535;-87
2023/03/19 00:38:45;;;;;;;;;;;9.10;47.60;;;;;;5002093;28;19917;-87
2023/03/19 00:41:12;;;;;;;;;;;9.00;47.70;;;;;;5019028;28;19963;-88
2023/03/19 00:43:37;;;;;;;;;;;9.00;47.70;;;;;;5001575;28;19917;-85
2023/03/19 00:46:03;;;;;;;;;;;9.00;47.60;;;;;;5022342;28;19925;-84
2023/03/19 00:48:29;;;;;;;;;;;9.00;47.80;;;;;;5019005;28;19919;-83
2023/03/19 00:51:00;;;;;;;;;;;9.00;47.80;;;;;;5019247;28;19912;-83
2023/03/19 00:53:26;;;;;;;;;;;9.00;47.80;;;;;;5016478;28;19917;-83
2023/03/19 00:55:52;;;;;;;;;;;9.00;47.90;;;;;;5018372;28;20759;-82
2023/03/19 00:58:17;;;;;;;;;;;9.00;47.80;;;;;;5006152;28;19920;-84
2023/03/19 01:00:44;;;;;;;;;;;9.00;47.80;;;;;;4985826;28;19917;-85
2023/03/19 01:03:09;;;;;;;;;;;9.00;47.90;;;;;;5002174;28;19913;-83
2023/03/19 01:05:36;;;;;;;;;;;8.90;47.80;;;;;;5000218;28;20547;-82
2023/03/19 01:08:02;;;;;;;;;;;9.00;47.90;;;;;;5014089;28;19917;-83
2023/03/19 01:10:29;;;;;;;;;;;8.90;47.90;;;;;;5018127;28;19982;-84
2023/03/19 01:12:55;;;;;;;;;;;8.90;47.80;;;;;;5016780;28;19944;-84
2023/03/19 01:15:21;;;;;;;;;;;8.90;47.90;;;;;;5019252;28;19913;-83
2023/03/19 01:17:47;;;;;;;;;;;8.90;47.90;;;;;;4999238;28;19924;-84
2023/03/19 01:20:17;;;;;;;;;;;8.90;47.90;;;;;;5034220;28;20538;-83
2023/03/19 01:22:43;;;;;;;;;;;8.90;48.00;;;;;;5001492;28;19921;-83
2023/03/19 01:25:11;;;;;;;;;;;8.90;48.00;;;;;;5001499;28;19923;-84
2023/03/19 01:27:39;;;;;;;;;;;8.90;48.00;;;;;;5001705;28;20291;-83
2023/03/19 01:30:06;;;;;;;;;;;8.90;48.00;;;;;;5016369;28;19924;-82
2023/03/19 01:32:58;;;;;;;;;;;8.90;48.10;;;;;;4974324;28;19922;-83
2023/03/19 01:35:33;;;;;;;;;;;8.80;48.10;;;;;;4954361;28;19968;-82
2023/03/19 01:37:59;;;;;;;;;;;8.80;48.10;;;;;;4974105;28;19949;-83
2023/03/19 01:40:25;;;;;;;;;;;8.80;48.20;;;;;;4958307;28;20568;-85
2023/03/19 01:42:51;;;;;;;;;;;8.80;48.30;;;;;;4942055;28;19940;-86
2023/03/19 01:45:37;;;;;;;;;;;8.80;48.20;;;;;;4939839;28;19910;-84
2023/03/19 01:48:39;;;;;;;;;;;8.80;48.20;;;;;;4958797;28;19917;-83
2023/03/19 01:51:12;;;;;;;;;;;8.80;48.30;;;;;;4942085;28;20319;-85
2023/03/19 01:54:09;;;;;;;;;;;8.80;48.30;;;;;;4944296;28;19917;-85
2023/03/19 01:57:03;;;;;;;;;;;8.80;48.30;;;;;;4958802;28;20375;-85
2023/03/19 02:00:00;;;;;;;;;;;8.70;48.90;;;;;;4916032;29;20348;-85
2023/03/19 02:02:51;;;;;;;;;;;8.70;48.40;;;;;;4888428;29;19989;-85
2023/03/19 02:05:38;;;;;;;;;;;8.70;48.40;;;;;;4915552;29;19918;-85
2023/03/19 02:08:10;;;;;;;;;;;8.70;48.50;;;;;;4861727;29;19919;-85
2023/03/19 02:10:36;;;;;;;;;;;8.70;48.50;;;;;;4933934;28;19925;-85
2023/03/19 02:13:02;;;;;;;;;;;8.70;48.50;;;;;;4950891;28;19950;-86
2023/03/19 02:15:28;;;;;;;;;;;8.70;48.70;;;;;;4972389;28;19925;-85
2023/03/19 02:17:54;;;;;;;;;;;8.70;48.70;;;;;;4959103;28;20495;-85
2023/03/19 02:20:30;;;;;;;;;;;8.70;48.70;;;;;;4957092;28;19930;-85
2023/03/19 02:23:11;;;;;;;;;;;8.70;48.80;;;;;;4931303;28;20437;-83
2023/03/19 02:25:43;;;;;;;;;;;8.70;48.80;;;;;;4974091;28;19918;-84
2023/03/19 02:28:09;;;;;;;;;;;8.60;48.90;;;;;;4939331;28;19924;-85
2023/03/19 02:30:36;;;;;;;;;;;8.60;48.80;;;;;;4938544;28;20106;-83
2023/03/19 02:33:11;;;;;;;;;;;8.60;49.00;;;;;;4955188;28;19914;-84
2023/03/19 02:35:37;;;;;;;;;;;8.60;49.00;;;;;;4929865;28;19929;-84
2023/03/19 02:38:04;;;;;;;;;;;8.60;49.10;;;;;;5000333;28;19917;-84
2023/03/19 02:40:33;;;;;;;;;;;8.60;49.10;;;;;;4994564;28;19928;-83
2023/03/19 02:42:58;;;;;;;;;;;8.60;49.10;;;;;;4997767;28;20612;-84
2023/03/19 02:45:28;;;;;;;;;;;8.60;49.00;;;;;;4996089;28;19913;-84
2023/03/19 02:47:54;;;;;;;;;;;8.60;49.00;;;;;;4993109;28;19957;-83
2023/03/19 02:50:20;;;;;;;;;;;8.60;49.10;;;;;;4995559;28;20006;-84
2023/03/19 02:52:47;;;;;;;;;;;8.60;49.10;;;;;;4990132;28;20301;-84
2023/03/19 02:55:13;;;;;;;;;;;8.50;49.00;;;;;;4977900;28;19922;-82
2023/03/19 02:57:39;;;;;;;;;;;8.60;49.00;;;;;;4978435;28;19921;-85
2023/03/19 03:00:06;;;;;;;;;;;8.50;48.90;;;;;;4996368;28;20059;-84
2023/03/19 03:02:32;;;;;;;;;;;8.60;49.00;;;;;;4993345;28;20285;-85
2023/03/19 03:04:58;;;;;;;;;;;8.50;49.00;;;;;;4979055;28;19943;-88
2023/03/19 03:07:24;;;;;;;;;;;8.50;49.00;;;;;;4954573;28;20403;-85
2023/03/19 03:09:51;;;;;;;;;;;8.50;48.90;;;;;;4995247;28;19951;-85
2023/03/19 03:12:17;;;;;;;;;;;8.50;49.00;;;;;;4996285;28;19913;-86
2023/03/19 03:14:43;;;;;;;;;;;8.50;48.90;;;;;;4993810;28;20373;-85
2023/03/19 03:17:09;;;;;;;;;;;8.50;49.00;;;;;;4965100;28;20059;-85
2023/03/19 03:19:35;;;;;;;;;;;8.40;48.90;;;;;;4977907;28;20016;-85
2023/03/19 03:22:01;;;;;;;;;;;8.40;49.00;;;;;;4977643;28;19917;-85
2023/03/19 03:24:28;;;;;;;;;;;8.40;48.90;;;;;;4980777;28;19918;-85
2023/03/19 03:26:53;;;;;;;;;;;8.50;49.00;;;;;;4990179;28;20431;-84
2023/03/19 03:29:20;;;;;;;;;;;8.40;48.90;;;;;;5000138;28;20384;-83
2023/03/19 03:31:46;;;;;;;;;;;8.40;49.00;;;;;;5018595;28;19917;-83
2023/03/19 03:34:13;;;;;;;;;;;8.40;49.00;;;;;;5015950;28;20012;-82
2023/03/19 03:36:38;;;;;;;;;;;8.40;49.00;;;;;;5000712;28;20013;-84
2023/03/19 03:39:05;;;;;;;;;;;8.40;49.00;;;;;;4977848;28;20291;-84
2023/03/19 03:41:31;;;;;;;;;;;8.40;49.10;;;;;;5001031;28;19932;-85
2023/03/19 03:43:58;;;;;;;;;;;8.40;49.10;;;;;;5016798;28;20055;-86
2023/03/19 03:46:24;;;;;;;;;;;8.30;49.20;;;;;;4976861;28;20002;-84
2023/03/19 03:48:51;;;;;;;;;;;8.40;49.40;;;;;;5000933;28;20606;-85
2023/03/19 03:51:18;;;;;;;;;;;8.40;49.30;;;;;;5017723;28;19912;-85
2023/03/19 03:53:44;;;;;;;;;;;8.30;49.20;;;;;;4996231;28;20277;-86
2023/03/19 03:56:11;;;;;;;;;;;8.30;49.30;;;;;;4984145;28;20067;-85
2023/03/19 03:58:37;;;;;;;;;;;8.30;49.30;;;;;;5015438;28;20048;-86
2023/03/19 04:01:03;;;;;;;;;;;8.30;49.30;;;;;;4998512;28;19921;-88
2023/03/19 04:03:30;;;;;;;;;;;8.30;49.30;;;;;;5001051;28;20496;-89
2023/03/19 04:05:56;;;;;;;;;;;8.30;49.90;;;;;;4991252;28;19909;-89
2023/03/19 04:08:22;;;;;;;;;;;8.30;49.20;;;;;;5017236;28;19917;-88
2023/03/19 04:10:48;;;;;;;;;;;8.30;49.20;;;;;;4988138;28;19928;-87
2023/03/19 04:13:14;;;;;;;;;;;8.30;49.20;;;;;;4994922;28;19916;-85
2023/03/19 04:15:41;;;;;;;;;;;8.30;49.20;;;;;;5008891;28;20126;-85
2023/03/19 04:18:07;;;;;;;;;;;8.30;49.20;;;;;;5000666;28;19916;-85
2023/03/19 04:20:34;;;;;;;;;;;8.30;49.20;;;;;;4981804;28;20363;-86
2023/03/19 04:23:00;;;;;;;;;;;8.30;49.20;;;;;;4991641;28;20311;-86
2023/03/19 04:25:27;;;;;;;;;;;8.30;49.20;;;;;;4988479;28;19917;-86
2023/03/19 04:27:55;;;;;;;;;;;8.30;49.30;;;;;;4999280;28;19923;-84
2023/03/19 04:30:22;;;;;;;;;;;8.20;49.20;;;;;;4983551;28;20024;-86
2023/03/19 04:32:48;;;;;;;;;;;8.30;49.10;;;;;;5012207;28;20294;-86
2023/03/19 04:35:14;;;;;;;;;;;8.20;49.10;;;;;;4999857;28;19971;-85
2023/03/19 04:37:42;;;;;;;;;;;8.20;49.10;;;;;;4987879;28;20396;-85
2023/03/19 04:40:09;;;;;;;;;;;8.20;49.10;;;;;;4999142;28;19979;-88
2023/03/19 04:42:36;;;;;;;;;;;8.20;49.20;;;;;;4981868;28;19913;-85
2023/03/19 04:45:10;;;;;;;;;;;8.20;49.20;;;;;;4999716;28;19912;-87
2023/03/19 04:47:36;;;;;;;;;;;8.20;49.10;;;;;;5004823;28;19924;-87
2023/03/19 04:50:02;;;;;;;;;;;8.20;49.20;;;;;;4986016;28;19917;-88
2023/03/19 04:52:32;;;;;;;;;;;8.20;49.20;;;;;;4992404;28;20395;-84
2023/03/19 04:54:58;;;;;;;;;;;8.20;49.20;;;;;;5018840;28;19921;-86
2023/03/19 04:57:24;;;;;;;;;;;8.20;49.20;;;;;;5000901;28;20009;-85
2023/03/19 04:59:52;;;;;;;;;;;8.20;49.40;;;;;;5014506;28;19925;-84
2023/03/19 05:02:20;;;;;;;;;;;8.20;49.50;;;;;;4997354;28;19967;-85
2023/03/19 05:04:48;;;;;;;;;;;8.10;49.40;;;;;;5014390;28;19921;-85
2023/03/19 05:07:15;;;;;;;;;;;8.20;49.40;;;;;;5016478;28;19924;-89
2023/03/19 05:09:42;;;;;;;;;;;8.10;49.40;;;;;;5003110;28;19919;-93
2023/03/19 05:12:10;;;;;;;;;;;8.20;49.40;;;;;;5016593;28;19916;-91
2023/03/19 05:14:41;;;;;;;;;;;8.10;49.40;;;;;;5000550;28;19923;-84
2023/03/19 05:17:19;;;;;;;;;;;8.20;49.40;;;;;;4982707;28;19917;-83
2023/03/19 05:20:03;;;;;;;;;;;8.10;49.40;;;;;;5003859;28;19920;-84
2023/03/19 05:22:31;;;;;;;;;;;8.10;49.50;;;;;;4996311;28;20411;-84
2023/03/19 05:24:58;;;;;;;;;;;8.10;49.40;;;;;;4981913;28;19921;-86
2023/03/19 05:27:26;;;;;;;;;;;8.10;49.40;;;;;;4983238;28;19913;-85
2023/03/19 05:30:05;;;;;;;;;;;8.10;49.40;;;;;;5000804;28;20019;-84
2023/03/19 05:32:39;;;;;;;;;;;8.10;49.50;;;;;;5015774;28;19918;-86
2023/03/19 05:35:11;;;;;;;;;;;8.10;49.50;;;;;;5015215;28;19924;-85
2023/03/19 05:37:37;;;;;;;;;;;8.10;49.50;;;;;;5015662;28;19917;-87
2023/03/19 05:40:04;;;;;;;;;;;8.10;49.50;;;;;;4998302;28;19921;-89
2023/03/19 05:42:30;;;;;;;;;;;8.10;49.60;;;;;;5000437;28;19919;-88
2023/03/19 05:44:57;;;;;;;;;;;8.20;49.70;;;;;;4999891;28;19917;-87
2023/03/19 05:47:35;;;;;;;;;;;8.20;49.70;;;;;;5000040;28;19921;-85
2023/03/19 05:50:02;;;;;;;;;;;8.20;49.70;;;;;;5013754;28;19963;-89
2023/03/19 05:52:29;;;;;;;;;;;8.30;49.80;;;;;;4998406;28;19970;-86
2023/03/19 05:54:59;;;;;;;;;;;8.30;49.80;;;;;;5002350;28;19989;-86
2023/03/19 05:57:45;;;;;;;;;;;8.40;49.90;;;;;;5014696;28;19917;-89
2023/03/19 06:00:17;;;;;;;;;;;8.50;49.90;;;;;;4983759;28;20372;-90
2023/03/19 06:02:45;;;;;;;;;;;8.60;50.00;;;;;;4999948;28;19921;-92
2023/03/19 06:05:30;;;;;;;;;;;8.60;50.50;;;;;;5002049;28;19917;-88
2023/03/19 06:08:07;;;;;;;;;;;8.70;50.10;;;;;;5000993;28;19916;-88
2023/03/19 06:10:51;;;;;;;;;;;8.80;50.00;;;;;;5009451;28;19929;-86
2023/03/19 06:13:17;;;;;;;;;;;9.00;50.30;;;;;;5010811;28;19916;-84
2023/03/19 06:15:52;;;;;;;;;;;9.00;50.10;;;;;;5011600;28;20044;-87
2023/03/19 06:18:47;;;;;;;;;;;9.20;49.50;;;;;;5002292;28;20028;-90
2023/03/19 06:21:15;;;;;;;;;;;9.30;49.90;;;;;;4997129;28;19917;-86
2023/03/19 06:23:41;;;;;;;;;;;9.40;49.70;;;;;;4974327;28;19917;-89
2023/03/19 06:26:11;;;;;;;;;;;9.50;49.70;;;;;;4997069;28;19939;-87
2023/03/19 06:28:49;;;;;;;;;;;9.70;50.00;;;;;;5005193;28;19917;-86
2023/03/19 06:31:16;;;;;;;;;;;9.80;49.90;;;;;;4988784;28;20365;-87
2023/03/19 06:34:04;;;;;;;;;;;9.90;49.50;;;;;;5015515;28;19916;-90
2023/03/19 06:36:39;;;;;;;;;;;10.00;49.60;;;;;;4994833;28;19920;-81
2023/03/19 06:39:08;;;;;;;;;;;10.10;49.50;;;;;;5020901;28;19913;-79
2023/03/19 06:41:33;;;;;;;;;;;10.20;49.30;;;;;;5015185;28;19969;-77
2023/03/19 06:44:21;;;;;;;;;;;10.20;49.60;;;;;;5011764;28;19916;-78
2023/03/19 06:46:47;;;;;;;;;;;10.30;49.60;;;;;;5017571;28;20279;-78
2023/03/19 06:49:13;;;;;;;;;;;10.40;49.80;;;;;;5015598;28;19949;-79
2023/03/19 06:51:38;;;;;;;;;;;10.50;49.60;;;;;;5034322;28;20685;-82
2023/03/19 06:54:04;;;;;;;;;;;10.60;50.60;;;;;;5032862;28;19970;-83
2023/03/19 06:56:30;;;;;;;;;;;10.70;48.90;;;;;;4997998;28;20289;-80
2023/03/19 06:58:56;;;;;;;;;;;10.70;47.90;;;;;;5032608;28;19921;-82
2023/03/19 07:01:22;;;;;;;;;;;10.80;47.50;;;;;;5014218;28;19921;-84
2023/03/19 07:03:48;;;;;;;;;;;10.80;46.20;;;;;;5002381;28;20272;-83
2023/03/19 07:06:14;;;;;;;;;;;10.80;46.00;;;;;;5037694;28;19959;-85
2023/03/19 07:08:44;;;;;;;;;;;10.80;45.40;;;;;;5039862;28;19956;-83
2023/03/19 07:11:11;;;;;;;;;;;10.90;45.60;;;;;;5034758;28;20451;-86
2023/03/19 07:13:37;;;;;;;;;;;10.90;45.70;;;;;;5017681;28;19923;-83
2023/03/19 07:16:03;;;;;;;;;;;10.90;45.50;;;;;;5019818;28;20376;-82
2023/03/19 07:18:29;;;;;;;;;;;11.00;45.10;;;;;;5037261;28;19916;-81
2023/03/19 07:20:54;;;;;;;;;;;11.00;44.70;;;;;;5038334;28;19923;-82
2023/03/19 07:23:20;;;;;;;;;;;11.00;44.70;;;;;;5021596;28;19920;-83
2023/03/19 07:25:46;;;;;;;;;;;11.10;44.60;;;;;;5037623;28;20385;-84
2023/03/19 07:28:12;;;;;;;;;;;11.10;44.40;;;;;;5040686;28;20588;-83
2023/03/19 07:30:38;;;;;;;;;;;11.10;44.30;;;;;;5020702;28;20403;-86
2023/03/19 07:33:05;;;;;;;;;;;11.10;44.10;;;;;;5039455;28;19919;-84
2023/03/19 07:35:32;;;;;;;;;;;11.10;43.90;;;;;;5015935;28;19924;-83
2023/03/19 07:37:59;;;;;;;;;;;11.10;43.70;;;;;;5038979;28;19920;-84
2023/03/19 07:40:25;;;;;;;;;;;11.10;43.60;;;;;;5020363;28;19925;-85
2023/03/19 07:42:51;;;;;;;;;;;11.10;43.50;;;;;;5038383;28;19917;-84
2023/03/19 07:45:17;;;;;;;;;;;11.20;43.60;;;;;;5018688;28;20295;-87
2023/03/19 07:47:42;;;;;;;;;;;11.20;43.70;;;;;;5036984;28;19959;-84
2023/03/19 07:50:09;;;;;;;;;;;11.20;43.70;;;;;;5036069;28;20304;-86
2023/03/19 07:52:35;;;;;;;;;;;11.20;43.60;;;;;;5019314;28;19916;-87
2023/03/19 07:55:01;;;;;;;;;;;11.20;43.60;;;;;;5021275;28;19970;-82
2023/03/19 07:57:26;;;;;;;;;;;11.20;43.50;;;;;;5003868;28;19928;-81
2023/03/19 07:59:52;;;;;;;;;;;11.20;43.60;;;;;;5036083;28;19959;-81
2023/03/19 08:02:18;;;;;;;;;;;11.20;43.60;;;;;;5007414;28;19921;-79
2023/03/19 08:04:44;;;;;;;;;;;11.20;43.60;;;;;;5015451;28;19940;-80
2023/03/19 08:07:11;;;;;;;;;;;11.20;43.60;;;;;;5016229;28;20426;-79
2023/03/19 08:09:38;;;;;;;;;;;11.20;43.70;;;;;;5035592;28;19973;-79
2023/03/19 08:12:05;;;;;;;;;;;11.20;43.70;;;;;;5035713;28;20012;-79
2023/03/19 08:14:31;;;;;;;;;;;11.20;43.80;;;;;;5034826;28;20442;-78
2023/03/19 08:16:57;;;;;;;;;;;11.20;43.80;;;;;;5029092;28;19991;-79
2023/03/19 08:19:23;;;;;;;;;;;11.20;44.10;;;;;;5033872;28;20424;-75
2023/03/19 08:21:48;;;;;;;;;;;11.20;44.00;;;;;;5033237;28;19935;-75
2023/03/19 08:24:14;;;;;;;;;;;11.20;44.10;;;;;;5015033;28;19912;-75
2023/03/19 08:26:40;;;;;;;;;;;11.20;44.10;;;;;;5015086;28;20354;-75
2023/03/19 08:29:07;;;;;;;;;;;11.20;44.10;;;;;;5025911;28;20477;-75
2023/03/19 08:31:33;;;;;;;;;;;11.20;43.80;;;;;;5032679;28;20503;-75
2023/03/19 08:34:04;;;;;;;;;;;11.20;44.20;;;;;;5033077;28;20004;-75
2023/03/19 08:36:30;;;;;;;;;;;11.20;44.10;;;;;;5032913;28;19943;-75
2023/03/19 08:38:57;;;;;;;;;;;11.20;43.80;;;;;;5016818;28;19916;-75
2023/03/19 08:41:23;;;;;;;;;;;11.10;44.00;;;;;;5036651;28;20019;-75
2023/03/19 08:43:49;;;;;;;;;;;11.10;44.10;;;;;;5036534;28;19916;-76
2023/03/19 08:46:15;;;;;;;;;;;11.10;44.00;;;;;;5036442;28;19916;-76
2023/03/19 08:48:41;;;;;;;;;;;11.00;44.00;;;;;;5036565;28;19919;-76
2023/03/19 08:51:08;;;;;;;;;;;11.00;44.00;;;;;;5018741;28;19982;-76
2023/03/19 08:53:34;;;;;;;;;;;11.00;44.10;;;;;;5035450;28;19970;-76
2023/03/19 08:56:02;;;;;;;;;;;11.00;44.20;;;;;;5018757;28;20245;-76
2023/03/19 08:58:29;;;;;;;;;;;11.00;44.80;;;;;;5006146;28;19974;-76
2023/03/19 09:01:02;;;;;;;;;;;11.00;44.60;;;;;;5035396;28;19925;-76
2023/03/19 09:03:27;;;;;;;;;;;11.00;44.50;;;;;;5036120;28;19918;-77
2023/03/19 09:05:56;;;;;;;;;;;11.00;44.60;;;;;;5036448;28;19928;-78
2023/03/19 09:08:22;;;;;;;;;;;11.00;44.60;;;;;;5003027;28;20559;-78
2023/03/19 09:10:48;;;;;;;;;;;11.00;44.90;;;;;;5032104;28;20470;-78
2023/03/19 09:13:14;;;;;;;;;;;10.90;45.30;;;;;;5012140;28;20002;-78
2023/03/19 09:15:40;;;;;;;;;;;10.90;45.40;;;;;;5036214;28;19920;-77
2023/03/19 09:18:05;;;;;;;;;;;10.90;45.40;;;;;;5036105;28;20303;-78
2023/03/19 09:20:31;;;;;;;;;;;10.80;43.60;;;;;;5035232;28;19920;-76
2023/03/19 09:22:57;;;;;;;;;;;10.80;43.80;;;;;;5035846;28;19921;-76
2023/03/19 09:25:23;;;;;;;;;;;10.70;44.20;;;;;;5035826;28;19923;-76
2023/03/19 09:27:48;;;;;;;;;;;10.70;44.70;;;;;;5030590;28;19944;-77
2023/03/19 09:30:14;;;;;;;;;;;10.70;45.10;;;;;;5017974;28;19921;-77
2023/03/19 09:32:40;;;;;;;;;;;10.70;45.40;;;;;;5017597;28;19939;-76
2023/03/19 09:35:06;;;;;;;;;;;10.70;45.50;;;;;;5034946;28;19982;-77
2023/03/19 09:37:32;;;;;;;;;;;10.60;45.70;;;;;;5014142;28;20162;-76
2023/03/19 09:39:58;;;;;;;;;;;10.60;45.60;;;;;;5036040;28;20055;-75
2023/03/19 09:42:30;;;;;;;;;;;10.60;45.80;;;;;;5035897;28;19920;-77
2023/03/19 09:44:56;;;;;;;;;;;10.60;45.90;;;;;;5034939;28;20000;-76
2023/03/19 09:47:25;;;;;;;;;;;10.60;46.00;;;;;;5035424;28;20011;-76
2023/03/19 09:49:52;;;;;;;;;;;10.60;46.10;;;;;;5035948;28;20303;-75
2023/03/19 09:52:27;;;;;;;;;;;10.60;46.20;;;;;;5035774;28;19969;-78
2023/03/19 09:54:57;;;;;;;;;;;10.60;46.30;;;;;;5005436;28;20800;-75
2023/03/19 09:57:22;;;;;;;;;;;10.60;46.30;;;;;;5035845;28;19913;-75
2023/03/19 09:59:51;;;;;;;;;;;10.50;46.30;;;;;;5034252;28;19916;-75
2023/03/19 10:02:35;;;;;;;;;;;10.50;46.70;;;;;;5035313;28;19928;-75
2023/03/19 10:05:07;;;;;;;;;;;10.60;46.60;;;;;;5011183;28;19967;-75
2023/03/19 10:07:45;;;;;;;;;;;10.50;47.30;;;;;;5020678;28;20131;-73
2023/03/19 10:10:30;;;;;;;;;;;10.50;46.50;;;;;;5035241;28;20049;-76
2023/03/19 10:13:01;;;;;;;;;;;10.50;46.70;;;;;;5033574;28;20007;-75
2023/03/19 10:15:28;;;;;;;;;;;10.40;46.70;;;;;;5034734;28;19920;-77
2023/03/19 10:17:54;;;;;;;;;;;10.50;46.60;;;;;;5012804;28;20011;-79
2023/03/19 10:20:32;;;;;;;;;;;10.40;46.70;;;;;;5000430;28;19966;-78
2023/03/19 10:23:16;;;;;;;;;;;10.40;46.40;;;;;;5035519;28;19920;-78
2023/03/19 10:25:43;;;;;;;;;;;10.40;46.50;;;;;;5035609;28;20388;-79
2023/03/19 10:28:17;;;;;;;;;;;10.30;46.50;;;;;;5017193;28;20387;-79
2023/03/19 10:30:47;;;;;;;;;;;10.30;46.60;;;;;;5004558;28;19979;-77
2023/03/19 10:33:23;;;;;;;;;;;10.30;46.80;;;;;;5035544;28;19923;-78
2023/03/19 10:36:02;;;;;;;;;;;10.30;46.60;;;;;;5017143;28;19927;-78
2023/03/19 10:38:32;;;;;;;;;;;10.30;46.60;;;;;;5011803;28;20315;-75
2023/03/19 10:41:04;;;;;;;;;;;10.30;46.70;;;;;;5035010;28;19948;-76
2023/03/19 10:43:30;;;;;;;;;;;10.30;47.00;;;;;;5034627;28;20497;-78
2023/03/19 10:45:56;;;;;;;;;;;10.30;47.00;;;;;;5035186;28;19917;-85
2023/03/19 10:48:24;;;;;;;;;;;10.20;47.10;;;;;;5036095;28;19913;-77
2023/03/19 10:50:56;;;;;;;;;;;10.20;47.20;;;;;;5034080;28;20304;-78
2023/03/19 10:53:36;;;;;;;;;;;10.20;47.10;;;;;;5035087;28;20023;-78
2023/03/19 10:56:03;;;;;;;;;;;10.20;47.10;;;;;;5035179;28;19963;-78
2023/03/19 10:58:30;;;;;;;;;;;10.20;46.90;;;;;;5017239;28;19916;-77
2023/03/19 11:00:57;;;;;;;;;;;10.20;47.00;;;;;;5034372;28;19921;-78
2023/03/19 11:03:29;;;;;;;;;;;10.20;47.20;;;;;;5017384;28;19913;-78
2023/03/19 11:06:10;;;;;;;;;;;10.20;47.60;;;;;;5015864;28;20394;-78
2023/03/19 11:08:36;;;;;;;;;;;10.10;47.50;;;;;;5004479;28;19971;-77
2023/03/19 11:11:02;;;;;;;;;;;10.10;47.70;;;;;;5034186;28;19923;-77
2023/03/19 11:13:29;;;;;;;;;;;10.10;47.90;;;;;;5016539;28;20493;-78
2023/03/19 11:15:58;;;;;;;;;;;10.10;47.80;;;;;;5019129;28;19923;-75
2023/03/19 11:18:27;;;;;;;;;;;10.10;47.80;;;;;;5035098;28;19945;-74
2023/03/19 11:20:58;;;;;;;;;;;10.10;47.70;;;;;;5033942;28;20018;-75
2023/03/19 11:23:36;;;;;;;;;;;10.10;47.60;;;;;;5035218;28;20342;-74
2023/03/19 11:26:02;;;;;;;;;;;10.10;47.70;;;;;;5012067;28;19917;-73
2023/03/19 11:28:32;;;;;;;;;;;10.00;47.50;;;;;;5034263;28;19921;-73
2023/03/19 11:31:09;;;;;;;;;;;10.00;47.30;;;;;;5034482;28;20320;-76
2023/03/19 11:33:41;;;;;;;;;;;10.00;47.40;;;;;;4987211;28;19913;-77
2023/03/19 11:36:10;;;;;;;;;;;10.00;47.80;;;;;;5035470;28;19908;-76
2023/03/19 11:38:42;;;;;;;;;;;10.00;48.00;;;;;;5015825;28;20000;-77
2023/03/19 11:41:26;;;;;;;;;;;10.00;48.00;;;;;;5033553;28;19921;-76
2023/03/19 11:44:04;;;;;;;;;;;10.00;48.20;;;;;;5033587;28;20295;-76
2023/03/19 11:46:45;;;;;;;;;;;10.00;48.10;;;;;;5002210;28;20426;-77
2023/03/19 11:49:17;;;;;;;;;;;10.00;48.10;;;;;;5018147;28;20362;-76
2023/03/19 11:51:46;;;;;;;;;;;10.00;48.30;;;;;;5034906;28;20287;-77
2023/03/19 11:54:15;;;;;;;;;;;9.90;48.20;;;;;;5006049;28;20430;-76
2023/03/19 11:56:42;;;;;;;;;;;9.90;48.10;;;;;;5035917;28;20535;-76
2023/03/19 11:59:11;;;;;;;;;;;10.00;48.40;;;;;;5021577;28;19960;-77
2023/03/19 12:01:58;;;;;;;;;;;10.00;48.20;;;;;;5035686;28;19925;-76
2023/03/19 12:04:37;;;;;;;;;;;9.90;48.00;;;;;;5036519;28;19980;-74
2023/03/19 12:07:11;;;;;;;;;;;10.00;47.90;;;;;;5018403;28;19917;-74
2023/03/19 12:09:48;;;;;;;;;;;10.00;48.10;;;;;;5034559;28;19945;-77
2023/03/19 12:12:14;;;;;;;;;;;10.00;48.40;;;;;;5013682;28;19917;-78
2023/03/19 12:14:49;;;;;;;;;;;9.90;48.50;;;;;;4987358;28;20066;-76
2023/03/19 12:17:27;;;;;;;;;;;9.90;48.40;;;;;;5037527;28;19990;-78
2023/03/19 12:20:11;;;;;;;;;;;9.90;47.80;;;;;;5037905;28;19923;-78
2023/03/19 12:22:56;;;;;;;;;;;9.90;47.60;;;;;;5014537;28;19925;-77
2023/03/19 12:25:40;;;;;;;;;;;10.00;48.00;;;;;;5037690;28;19917;-77
2023/03/19 12:28:13;;;;;;;;;;;9.90;47.60;;;;;;5023413;28;19923;-84
2023/03/19 12:30:40;;;;;;;;;;;9.90;47.90;;;;;;5035508;28;19948;-77
2023/03/19 12:33:11;;;;;;;;;;;9.90;48.00;;;;;;5039766;28;19940;-81
2023/03/19 12:35:38;;;;;;;;;;;9.90;48.40;;;;;;5021042;28;19920;-78
2023/03/19 12:38:14;;;;;;;;;;;9.90;48.50;;;;;;5038387;28;19917;-78
2023/03/19 12:40:50;;;;;;;;;;;9.90;48.60;;;;;;5038006;28;20473;-79
2023/03/19 12:43:27;;;;;;;;;;;9.90;48.50;;;;;;5037746;28;19916;-78
2023/03/19 12:45:57;;;;;;;;;;;9.90;48.90;;;;;;5037584;28;20422;-77
2023/03/19 12:48:49;;;;;;;;;;;9.90;48.90;;;;;;5017421;28;19948;-86
2023/03/19 12:51:17;;;;;;;;;;;9.90;48.40;;;;;;5016986;28;19921;-76
2023/03/19 12:53:49;;;;;;;;;;;9.90;48.50;;;;;;5003300;28;19923;-76
2023/03/19 12:56:28;;;;;;;;;;;9.90;48.10;;;;;;5018902;28;19916;-76
2023/03/19 12:59:08;;;;;;;;;;;9.90;48.10;;;;;;5032492;28;20883;-78
2023/03/19 13:01:44;;;;;;;;;;;9.90;47.90;;;;;;5036419;28;19932;-77
2023/03/19 13:04:15;;;;;;;;;;;9.90;47.90;;;;;;5038482;28;19916;-77
2023/03/19 13:07:13;;;;;;;;;;;9.90;48.80;;;;;;5037922;28;20050;-76
2023/03/19 13:10:00;;;;;;;;;;;9.90;48.40;;;;;;4993009;28;19932;-74
2023/03/19 13:12:30;;;;;;;;;;;9.90;48.30;;;;;;5036863;28;19917;-76
2023/03/19 13:15:06;;;;;;;;;;;9.90;48.40;;;;;;5037353;28;19916;-75
2023/03/19 13:17:33;;;;;;;;;;;9.90;48.40;;;;;;5038211;28;19924;-76
2023/03/19 13:20:04;;;;;;;;;;;9.90;48.30;;;;;;5019504;28;19929;-76
2023/03/19 13:22:33;;;;;;;;;;;9.90;48.40;;;;;;5038311;28;19924;-76
2023/03/19 13:25:00;;;;;;;;;;;9.90;48.40;;;;;;5033577;28;19971;-76
2023/03/19 13:27:29;;;;;;;;;;;9.90;48.60;;;;;;5038016;28;19986;-77
2023/03/19 13:30:06;;;;;;;;;;;9.90;48.90;;;;;;5019956;28;19925;-75
2023/03/19 13:32:34;;;;;;;;;;;9.80;48.90;;;;;;5038040;28;19927;-77
2023/03/19 13:35:25;;;;;;;;;;;9.80;48.80;;;;;;5006370;28;20447;-77
2023/03/19 13:38:10;;;;;;;;;;;9.90;49.10;;;;;;5012011;28;19918;-77
2023/03/19 13:40:39;;;;;;;;;;;9.80;49.20;;;;;;5015544;28;20510;-76
2023/03/19 13:43:18;;;;;;;;;;;9.80;48.90;;;;;;5036216;28;19923;-77
2023/03/19 13:45:44;;;;;;;;;;;9.80;49.00;;;;;;5037138;28;19959;-78
2023/03/19 13:48:30;;;;;;;;;;;9.80;49.00;;;;;;5019571;28;19909;-78
2023/03/19 13:51:02;;;;;;;;;;;9.80;49.00;;;;;;5015196;28;19916;-80
2023/03/19 13:53:28;;;;;;;;;;;9.80;49.00;;;;;;5014787;28;19917;-80
2023/03/19 13:55:56;;;;;;;;;;;9.80;49.00;;;;;;5019041;28;20036;-78
2023/03/19 14:01:26;;;;;;;;;;;9.80;49.10;;;;;;5033778;28;19925;-76
2023/03/19 14:04:02;;;;;;;;;;;9.90;49.10;;;;;;5022960;28;19916;-76
2023/03/19 14:06:33;;;;;;;;;;;9.80;49.00;;;;;;5012521;28;19918;-75
2023/03/19 14:08:59;;;;;;;;;;;9.80;48.90;;;;;;5015535;28;19966;-75
2023/03/19 14:11:33;;;;;;;;;;;9.90;48.90;;;;;;5036345;28;19939;-75
2023/03/19 14:14:00;;;;;;;;;;;9.90;49.00;;;;;;5021247;28;19916;-75
2023/03/19 14:16:35;;;;;;;;;;;9.80;49.00;;;;;;5018592;28;20376;-75
2023/03/19 14:19:01;;;;;;;;;;;9.80;49.10;;;;;;5013484;28;19917;-75
2023/03/19 14:21:39;;;;;;;;;;;9.90;49.10;;;;;;5024334;28;19920;-75
2023/03/19 14:24:24;;;;;;;;;;;9.80;49.20;;;;;;5035918;28;19923;-75
2023/03/19 14:26:50;;;;;;;;;;;9.80;49.00;;;;;;5014401;28;20319;-76
2023/03/19 14:29:17;;;;;;;;;;;9.80;49.00;;;;;;5015069;28;19932;-76
2023/03/19 14:31:48;;;;;;;;;;;9.80;49.50;;;;;;5036086;28;19999;-78
2023/03/19 14:34:18;;;;;;;;;;;9.80;49.00;;;;;;5036117;28;19928;-75
2023/03/19 14:36:46;;;;;;;;;;;9.80;49.00;;;;;;5036612;28;20300;-76
2023/03/19 14:39:26;;;;;;;;;;;9.80;49.30;;;;;;5018767;28;19916;-76
2023/03/19 14:42:15;;;;;;;;;;;9.80;49.00;;;;;;5015045;28;20427;-76
2023/03/19 14:44:44;;;;;;;;;;;9.80;49.00;;;;;;4948725;28;19960;-75
2023/03/19 14:47:12;;;;;;;;;;;9.70;49.30;;;;;;4948925;28;19953;-76